sensor_id;sensor_type;location;lat;lon;timestamp;pressure;altitude;pressure_sealevel;temperature;humidity
60719;BME280;46567;51.660;5.824;2023-04-25T00:00:48;100970.0;;;7.5;87.5
60719;BME280;46567;51.660;5.824;2023-04-25T00:05:48;100980.0;;;7.5;87.0
60719;BME280;46567;51.660;5.824;2023-04-25T00:10:48;100980.0;;;7.6;87.5
60719;BME280;46567;51.660;5.824;2023-04-25T00:15:48;100990.0;;;7.6;87.5
60719;BME280;46567;51.660;5.824;2023-04-25T00:20:48;100990.0;;;7.6;87.5
60719;BME280;46567;51.660;5.824;2023-04-25T00:25:49;101000.0;;;7.6;87.5
60719;BME280;46567;51.660;5.824;2023-04-25T00:30:48;101000.0;;;7.6;87.5
60719;BME280;46567;51.660;5.824;2023-04-25T00:35:48;101000.0;;;7.6;88.0
60719;BME280;46567;51.660;5.824;2023-04-25T00:40:48;101000.0;;;7.6;88.0
60719;BME280;46567;51.660;5.824;2023-04-25T00:45:48;101000.0;;;7.6;88.5
60719;BME280;46567;51.660;5.824;2023-04-25T00:50:53;100990.0;;;7.6;88.5
60719;BME280;46567;51.660;5.824;2023-04-25T00:55:48;101000.0;;;7.7;88.5
60719;BME280;46567;51.660;5.824;2023-04-25T01:00:49;101000.0;;;7.7;88.5
60719;BME280;46567;51.660;5.824;2023-04-25T01:05:48;101010.0;;;7.7;88.5
60719;BME280;46567;51.660;5.824;2023-04-25T01:10:48;101000.0;;;7.7;88.5
60719;BME280;46567;51.660;5.824;2023-04-25T01:15:48;101000.0;;;7.7;88.5
60719;BME280;46567;51.660;5.824;2023-04-25T01:20:50;101010.0;;;7.7;88.5
60719;BME280;46567;51.660;5.824;2023-04-25T01:25:49;101010.0;;;7.7;89.0
60719;BME280;46567;51.660;5.824;2023-04-25T01:30:48;101010.0;;;7.7;88.5
60719;BME280;46567;51.660;5.824;2023-04-25T01:35:48;101020.0;;;7.7;88.5
60719;BME280;46567;51.660;5.824;2023-04-25T01:40:49;101020.0;;;7.6;88.5
60719;BME280;46567;51.660;5.824;2023-04-25T01:45:48;101030.0;;;7.5;88.5
60719;BME280;46567;51.660;5.824;2023-04-25T01:50:48;101030.0;;;7.4;89.0
60719;BME280;46567;51.660;5.824;2023-04-25T01:55:48;101030.0;;;7.4;89.0
60719;BME280;46567;51.660;5.824;2023-04-25T02:00:48;101040.0;;;7.3;89.5
60719;BME280;46567;51.660;5.824;2023-04-25T02:05:48;101040.0;;;7.3;89.5
60719;BME280;46567;51.660;5.824;2023-04-25T02:10:48;101040.0;;;7.3;89.5
60719;BME280;46567;51.660;5.824;2023-04-25T02:15:48;101040.0;;;7.3;90.0
60719;BME280;46567;51.660;5.824;2023-04-25T02:20:48;101050.0;;;7.3;89.5
60719;BME280;46567;51.660;5.824;2023-04-25T02:25:48;101040.0;;;7.3;89.5
60719;BME280;46567;51.660;5.824;2023-04-25T02:30:48;101040.0;;;7.2;90.0
60719;BME280;46567;51.660;5.824;2023-04-25T02:35:48;101050.0;;;7.1;90.0
60719;BME280;46567;51.660;5.824;2023-04-25T02:40:48;101050.0;;;7.1;89.5
60719;BME280;46567;51.660;5.824;2023-04-25T02:45:48;101050.0;;;7.0;90.0
60719;BME280;46567;51.660;5.824;2023-04-25T02:50:48;101050.0;;;7.0;89.5
60719;BME280;46567;51.660;5.824;2023-04-25T02:55:48;101060.0;;;6.9;90.0
60719;BME280;46567;51.660;5.824;2023-04-25T03:00:48;101060.0;;;6.9;90.0
60719;BME280;46567;51.660;5.824;2023-04-25T03:05:48;101040.0;;;6.8;90.0
60719;BME280;46567;51.660;5.824;2023-04-25T03:10:48;101050.0;;;6.7;90.0
60719;BME280;46567;51.660;5.824;2023-04-25T03:15:48;101060.0;;;6.6;90.0
60719;BME280;46567;51.660;5.824;2023-04-25T03:20:48;101060.0;;;6.6;90.0
60719;BME280;46567;51.660;5.824;2023-04-25T03:25:48;101060.0;;;6.6;90.0
60719;BME280;46567;51.660;5.824;2023-04-25T03:30:48;101060.0;;;6.5;90.0
60719;BME280;46567;51.660;5.824;2023-04-25T03:35:48;101080.0;;;6.5;90.0
60719;BME280;46567;51.660;5.824;2023-04-25T03:40:49;101060.0;;;6.4;90.5
60719;BME280;46567;51.660;5.824;2023-04-25T03:45:48;101070.0;;;6.4;90.5
60719;BME280;46567;51.660;5.824;2023-04-25T03:50:48;101070.0;;;6.4;90.5
60719;BME280;46567;51.660;5.824;2023-04-25T03:55:48;101070.0;;;6.4;90.5
60719;BME280;46567;51.660;5.824;2023-04-25T04:00:48;101080.0;;;6.4;90.5
60719;BME280;46567;51.660;5.824;2023-04-25T04:05:48;101070.0;;;6.4;90.5
60719;BME280;46567;51.660;5.824;2023-04-25T04:10:48;101080.0;;;6.5;90.0
60719;BME280;46567;51.660;5.824;2023-04-25T04:15:48;101090.0;;;6.5;90.0
60719;BME280;46567;51.660;5.824;2023-04-25T04:20:48;101090.0;;;6.5;90.0
60719;BME280;46567;51.660;5.824;2023-04-25T04:25:48;101090.0;;;6.5;90.0
60719;BME280;46567;51.660;5.824;2023-04-25T04:30:48;101090.0;;;6.5;90.0
60719;BME280;46567;51.660;5.824;2023-04-25T04:35:48;101090.0;;;6.5;90.0
60719;BME280;46567;51.660;5.824;2023-04-25T04:40:48;101100.0;;;6.4;90.0
60719;BME280;46567;51.660;5.824;2023-04-25T04:45:48;101110.0;;;6.4;90.0
60719;BME280;46567;51.660;5.824;2023-04-25T04:50:48;101110.0;;;6.4;90.0
60719;BME280;46567;51.660;5.824;2023-04-25T04:55:48;101120.0;;;6.4;90.0
60719;BME280;46567;51.660;5.824;2023-04-25T05:00:48;101130.0;;;6.4;90.0
60719;BME280;46567;51.660;5.824;2023-04-25T05:05:48;101130.0;;;6.5;90.0
60719;BME280;46567;51.660;5.824;2023-04-25T05:10:48;101130.0;;;6.6;90.0
60719;BME280;46567;51.660;5.824;2023-04-25T05:15:48;101130.0;;;6.7;90.0
60719;BME280;46567;51.660;5.824;2023-04-25T05:20:48;101160.0;;;6.8;89.5
60719;BME280;46567;51.660;5.824;2023-04-25T05:25:48;101160.0;;;6.8;89.5
60719;BME280;46567;51.660;5.824;2023-04-25T05:30:48;101170.0;;;7.0;89.0
60719;BME280;46567;51.660;5.824;2023-04-25T05:35:48;101180.0;;;7.0;89.0
60719;BME280;46567;51.660;5.824;2023-04-25T05:40:48;101180.0;;;7.1;88.5
60719;BME280;46567;51.660;5.824;2023-04-25T05:45:48;101180.0;;;7.3;88.5
60719;BME280;46567;51.660;5.824;2023-04-25T05:50:48;101180.0;;;7.4;88.0
60719;BME280;46567;51.660;5.824;2023-04-25T05:55:48;101200.0;;;7.5;88.0
60719;BME280;46567;51.660;5.824;2023-04-25T06:00:48;101190.0;;;7.6;87.5
60719;BME280;46567;51.660;5.824;2023-04-25T06:05:48;101200.0;;;7.7;86.5
60719;BME280;46567;51.660;5.824;2023-04-25T06:10:48;101200.0;;;7.9;86.5
60719;BME280;46567;51.660;5.824;2023-04-25T06:15:48;101200.0;;;8.0;86.5
60719;BME280;46567;51.660;5.824;2023-04-25T06:20:48;101200.0;;;8.1;86.0
60719;BME280;46567;51.660;5.824;2023-04-25T06:25:48;101200.0;;;8.2;85.0
60719;BME280;46567;51.660;5.824;2023-04-25T06:30:48;101210.0;;;8.4;85.0
60719;BME280;46567;51.660;5.824;2023-04-25T06:35:48;101220.0;;;8.5;84.0
60719;BME280;46567;51.660;5.824;2023-04-25T06:40:48;101220.0;;;8.5;83.5
60719;BME280;46567;51.660;5.824;2023-04-25T06:45:48;101230.0;;;8.6;83.0
60719;BME280;46567;51.660;5.824;2023-04-25T06:50:48;101230.0;;;8.7;81.5
60719;BME280;46567;51.660;5.824;2023-04-25T06:55:48;101240.0;;;8.9;81.0
60719;BME280;46567;51.660;5.824;2023-04-25T07:00:48;101230.0;;;9.2;79.5
60719;BME280;46567;51.660;5.824;2023-04-25T07:05:48;101250.0;;;9.5;79.0
60719;BME280;46567;51.660;5.824;2023-04-25T07:10:48;101250.0;;;9.6;77.5
60719;BME280;46567;51.660;5.824;2023-04-25T07:15:48;101250.0;;;9.7;76.0
60719;BME280;46567;51.660;5.824;2023-04-25T07:20:48;101270.0;;;9.7;75.0
60719;BME280;46567;51.660;5.824;2023-04-25T07:25:48;101260.0;;;9.8;75.0
60719;BME280;46567;51.660;5.824;2023-04-25T07:30:48;101260.0;;;10.0;75.5
60719;BME280;46567;51.660;5.824;2023-04-25T07:35:48;101270.0;;;10.1;74.0
60719;BME280;46567;51.660;5.824;2023-04-25T07:40:48;101280.0;;;10.3;74.0
60719;BME280;46567;51.660;5.824;2023-04-25T07:45:48;101290.0;;;10.5;73.5
60719;BME280;46567;51.660;5.824;2023-04-25T07:50:48;101280.0;;;10.8;73.5
60719;BME280;46567;51.660;5.824;2023-04-25T07:55:48;101300.0;;;11.1;72.0
60719;BME280;46567;51.660;5.824;2023-04-25T08:00:48;101300.0;;;11.2;70.5
60719;BME280;46567;51.660;5.824;2023-04-25T08:05:48;101300.0;;;11.1;70.0
60719;BME280;46567;51.660;5.824;2023-04-25T08:10:48;101320.0;;;10.9;70.0
60719;BME280;46567;51.660;5.824;2023-04-25T08:15:48;101320.0;;;10.8;70.0
60719;BME280;46567;51.660;5.824;2023-04-25T08:20:48;101320.0;;;10.8;68.5
60719;BME280;46567;51.660;5.824;2023-04-25T08:25:48;101330.0;;;10.9;68.0
60719;BME280;46567;51.660;5.824;2023-04-25T08:30:48;101330.0;;;11.2;66.0
60719;BME280;46567;51.660;5.824;2023-04-25T08:35:48;101330.0;;;11.5;65.0
60719;BME280;46567;51.660;5.824;2023-04-25T08:40:51;101330.0;;;11.8;65.5
60719;BME280;46567;51.660;5.824;2023-04-25T08:45:48;101350.0;;;12.1;64.5
60719;BME280;46567;51.660;5.824;2023-04-25T08:50:52;101360.0;;;12.1;59.0
60719;BME280;46567;51.660;5.824;2023-04-25T08:55:49;101350.0;;;12.0;59.5
60719;BME280;46567;51.660;5.824;2023-04-25T09:00:49;101360.0;;;12.0;61.0
60719;BME280;46567;51.660;5.824;2023-04-25T09:05:48;101370.0;;;12.1;59.0
60719;BME280;46567;51.660;5.824;2023-04-25T09:10:48;101380.0;;;12.0;59.5
60719;BME280;46567;51.660;5.824;2023-04-25T09:15:50;101390.0;;;12.0;59.0
60719;BME280;46567;51.660;5.824;2023-04-25T09:20:48;101390.0;;;11.9;59.5
60719;BME280;46567;51.660;5.824;2023-04-25T09:25:52;101410.0;;;11.8;58.0
60719;BME280;46567;51.660;5.824;2023-04-25T09:30:48;101420.0;;;11.6;59.5
60719;BME280;46567;51.660;5.824;2023-04-25T09:35:48;101420.0;;;11.2;59.5
60719;BME280;46567;51.660;5.824;2023-04-25T09:40:48;101430.0;;;11.0;62.5
60719;BME280;46567;51.660;5.824;2023-04-25T09:45:48;101430.0;;;10.8;64.0
60719;BME280;46567;51.660;5.824;2023-04-25T09:51:03;101440.0;;;10.8;63.5
60719;BME280;46567;51.660;5.824;2023-04-25T09:55:48;101440.0;;;10.9;63.0
60719;BME280;46567;51.660;5.824;2023-04-25T10:00:48;101440.0;;;11.1;63.5
60719;BME280;46567;51.660;5.824;2023-04-25T10:05:48;101440.0;;;11.4;64.5
60719;BME280;46567;51.660;5.824;2023-04-25T10:10:48;101440.0;;;11.6;63.5
60719;BME280;46567;51.660;5.824;2023-04-25T10:15:48;101450.0;;;11.8;63.0
60719;BME280;46567;51.660;5.824;2023-04-25T10:20:48;101440.0;;;12.1;62.0
60719;BME280;46567;51.660;5.824;2023-04-25T10:25:49;101440.0;;;12.5;62.5
60719;BME280;46567;51.660;5.824;2023-04-25T10:31:06;101430.0;;;12.9;60.5
60719;BME280;46567;51.660;5.824;2023-04-25T10:35:48;101430.0;;;13.0;57.5
60719;BME280;46567;51.660;5.824;2023-04-25T10:41:02;101450.0;;;12.6;56.5
60719;BME280;46567;51.660;5.824;2023-04-25T10:45:51;101450.0;;;11.7;59.0
60719;BME280;46567;51.660;5.824;2023-04-25T10:50:48;101460.0;;;11.2;62.0
60719;BME280;46567;51.660;5.824;2023-04-25T10:55:49;101460.0;;;11.1;62.5
60719;BME280;46567;51.660;5.824;2023-04-25T11:00:49;101470.0;;;11.0;61.5
60719;BME280;46567;51.660;5.824;2023-04-25T11:05:49;101470.0;;;11.1;62.0
60719;BME280;46567;51.660;5.824;2023-04-25T11:10:48;101460.0;;;11.6;64.5
60719;BME280;46567;51.660;5.824;2023-04-25T11:15:51;101460.0;;;12.1;58.0
60719;BME280;46567;51.660;5.824;2023-04-25T11:20:49;101460.0;;;12.0;55.5
60719;BME280;46567;51.660;5.824;2023-04-25T11:25:49;101460.0;;;11.8;54.0
60719;BME280;46567;51.660;5.824;2023-04-25T11:30:48;101480.0;;;11.7;55.5
60719;BME280;46567;51.660;5.824;2023-04-25T11:35:48;101490.0;;;11.5;57.0
60719;BME280;46567;51.660;5.824;2023-04-25T11:40:49;101490.0;;;11.3;58.5
60719;BME280;46567;51.660;5.824;2023-04-25T11:45:49;101490.0;;;11.2;60.0
60719;BME280;46567;51.660;5.824;2023-04-25T11:50:48;101490.0;;;11.3;61.0
60719;BME280;46567;51.660;5.824;2023-04-25T11:55:48;101490.0;;;11.6;61.5
60719;BME280;46567;51.660;5.824;2023-04-25T12:00:48;101500.0;;;11.6;59.5
60719;BME280;46567;51.660;5.824;2023-04-25T12:05:49;101490.0;;;11.8;60.5
60719;BME280;46567;51.660;5.824;2023-04-25T12:10:48;101500.0;;;12.2;60.0
60719;BME280;46567;51.660;5.824;2023-04-25T12:15:48;101510.0;;;12.5;59.5
60719;BME280;46567;51.660;5.824;2023-04-25T12:20:48;101500.0;;;12.9;55.5
60719;BME280;46567;51.660;5.824;2023-04-25T12:25:48;101500.0;;;13.0;57.0
60719;BME280;46567;51.660;5.824;2023-04-25T12:30:51;101490.0;;;13.1;53.5
60719;BME280;46567;51.660;5.824;2023-04-25T12:35:48;101480.0;;;13.4;50.5
60719;BME280;46567;51.660;5.824;2023-04-25T12:40:48;101490.0;;;13.4;49.0
60719;BME280;46567;51.660;5.824;2023-04-25T12:45:49;101500.0;;;13.4;49.0
60719;BME280;46567;51.660;5.824;2023-04-25T12:50:49;101490.0;;;13.4;48.5
60719;BME280;46567;51.660;5.824;2023-04-25T12:55:48;101490.0;;;13.7;48.0
60719;BME280;46567;51.660;5.824;2023-04-25T13:00:48;101490.0;;;14.0;49.5
60719;BME280;46567;51.660;5.824;2023-04-25T13:05:48;101530.0;;;13.7;48.0
60719;BME280;46567;51.660;5.824;2023-04-25T13:10:48;101530.0;;;13.0;51.0
60719;BME280;46567;51.660;5.824;2023-04-25T13:15:48;101530.0;;;12.2;53.5
60719;BME280;46567;51.660;5.824;2023-04-25T13:20:48;101540.0;;;11.8;56.5
60719;BME280;46567;51.660;5.824;2023-04-25T13:25:48;101540.0;;;11.5;57.5
60719;BME280;46567;51.660;5.824;2023-04-25T13:30:48;101550.0;;;11.5;59.0
60719;BME280;46567;51.660;5.824;2023-04-25T13:35:49;101540.0;;;11.6;58.5
60719;BME280;46567;51.660;5.824;2023-04-25T13:40:49;101540.0;;;11.6;57.0
60719;BME280;46567;51.660;5.824;2023-04-25T13:45:49;101530.0;;;11.9;57.0
60719;BME280;46567;51.660;5.824;2023-04-25T13:50:48;101530.0;;;12.4;55.5
60719;BME280;46567;51.660;5.824;2023-04-25T13:55:49;101540.0;;;12.6;54.0
60719;BME280;46567;51.660;5.824;2023-04-25T14:00:48;101550.0;;;12.1;54.5
60719;BME280;46567;51.660;5.824;2023-04-25T14:05:48;101560.0;;;11.6;56.5
60719;BME280;46567;51.660;5.824;2023-04-25T14:10:48;101560.0;;;11.5;57.5
60719;BME280;46567;51.660;5.824;2023-04-25T14:15:48;101550.0;;;11.7;56.0
60719;BME280;46567;51.660;5.824;2023-04-25T14:20:48;101560.0;;;11.9;52.0
60719;BME280;46567;51.660;5.824;2023-04-25T14:25:48;101540.0;;;12.2;52.0
60719;BME280;46567;51.660;5.824;2023-04-25T14:30:48;101540.0;;;12.6;51.5
60719;BME280;46567;51.660;5.824;2023-04-25T14:35:48;101530.0;;;12.9;50.0
60719;BME280;46567;51.660;5.824;2023-04-25T14:40:48;101540.0;;;13.3;47.5
60719;BME280;46567;51.660;5.824;2023-04-25T14:45:48;101540.0;;;13.5;46.0
60719;BME280;46567;51.660;5.824;2023-04-25T14:50:48;101550.0;;;13.7;46.0
60719;BME280;46567;51.660;5.824;2023-04-25T14:55:48;101540.0;;;13.8;44.0
60719;BME280;46567;51.660;5.824;2023-04-25T15:00:48;101550.0;;;14.1;47.0
60719;BME280;46567;51.660;5.824;2023-04-25T15:05:48;101560.0;;;13.9;46.5
60719;BME280;46567;51.660;5.824;2023-04-25T15:10:48;101550.0;;;13.6;47.5
60719;BME280;46567;51.660;5.824;2023-04-25T15:15:48;101560.0;;;13.2;48.0
60719;BME280;46567;51.660;5.824;2023-04-25T15:20:49;101560.0;;;13.2;46.0
60719;BME280;46567;51.660;5.824;2023-04-25T15:25:49;101570.0;;;13.2;46.0
60719;BME280;46567;51.660;5.824;2023-04-25T15:30:48;101560.0;;;13.1;48.0
60719;BME280;46567;51.660;5.824;2023-04-25T15:35:48;101560.0;;;13.3;47.0
60719;BME280;46567;51.660;5.824;2023-04-25T15:40:48;101550.0;;;13.6;46.5
60719;BME280;46567;51.660;5.824;2023-04-25T15:45:48;101570.0;;;13.9;46.0
60719;BME280;46567;51.660;5.824;2023-04-25T15:50:48;101570.0;;;14.2;45.0
60719;BME280;46567;51.660;5.824;2023-04-25T15:55:48;101570.0;;;13.8;47.0
60719;BME280;46567;51.660;5.824;2023-04-25T16:00:48;101580.0;;;13.3;47.5
60719;BME280;46567;51.660;5.824;2023-04-25T16:05:48;101570.0;;;13.4;48.5
60719;BME280;46567;51.660;5.824;2023-04-25T16:15:48;101600.0;;;13.0;49.5
60719;BME280;46567;51.660;5.824;2023-04-25T16:20:48;101600.0;;;12.5;52.0
60719;BME280;46567;51.660;5.824;2023-04-25T16:25:48;101610.0;;;11.9;52.5
60719;BME280;46567;51.660;5.824;2023-04-25T16:35:48;101610.0;;;11.6;54.0
60719;BME280;46567;51.660;5.824;2023-04-25T16:40:48;101610.0;;;11.6;54.5
60719;BME280;46567;51.660;5.824;2023-04-25T16:45:48;101620.0;;;11.5;54.5
60719;BME280;46567;51.660;5.824;2023-04-25T16:50:48;101610.0;;;11.3;53.0
60719;BME280;46567;51.660;5.824;2023-04-25T16:55:48;101620.0;;;11.2;53.0
60719;BME280;46567;51.660;5.824;2023-04-25T17:00:48;101630.0;;;11.0;52.5
60719;BME280;46567;51.660;5.824;2023-04-25T17:05:49;101630.0;;;10.9;53.0
60719;BME280;46567;51.660;5.824;2023-04-25T17:10:48;101630.0;;;11.1;53.5
60719;BME280;46567;51.660;5.824;2023-04-25T17:15:48;101620.0;;;11.3;53.0
60719;BME280;46567;51.660;5.824;2023-04-25T17:20:48;101630.0;;;11.7;52.5
60719;BME280;46567;51.660;5.824;2023-04-25T17:25:48;101630.0;;;12.0;50.5
60719;BME280;46567;51.660;5.824;2023-04-25T17:30:48;101640.0;;;11.8;52.0
60719;BME280;46567;51.660;5.824;2023-04-25T17:35:48;101650.0;;;11.7;53.0
60719;BME280;46567;51.660;5.824;2023-04-25T17:40:48;101660.0;;;11.6;52.0
60719;BME280;46567;51.660;5.824;2023-04-25T17:45:48;101660.0;;;11.4;53.0
60719;BME280;46567;51.660;5.824;2023-04-25T17:50:48;101670.0;;;11.2;54.0
60719;BME280;46567;51.660;5.824;2023-04-25T17:55:48;101660.0;;;10.8;54.5
60719;BME280;46567;51.660;5.824;2023-04-25T18:00:48;101670.0;;;10.6;54.5
60719;BME280;46567;51.660;5.824;2023-04-25T18:05:48;101680.0;;;10.5;55.0
60719;BME280;46567;51.660;5.824;2023-04-25T18:10:48;101680.0;;;10.5;55.5
60719;BME280;46567;51.660;5.824;2023-04-25T18:15:48;101680.0;;;10.4;56.0
60719;BME280;46567;51.660;5.824;2023-04-25T18:20:48;101690.0;;;10.3;57.0
60719;BME280;46567;51.660;5.824;2023-04-25T18:25:48;101700.0;;;10.2;58.0
60719;BME280;46567;51.660;5.824;2023-04-25T18:30:48;101690.0;;;10.0;58.5
60719;BME280;46567;51.660;5.824;2023-04-25T18:35:48;101710.0;;;9.9;59.5
60719;BME280;46567;51.660;5.824;2023-04-25T18:40:48;101710.0;;;9.8;60.0
60719;BME280;46567;51.660;5.824;2023-04-25T18:45:48;101710.0;;;9.8;60.5
60719;BME280;46567;51.660;5.824;2023-04-25T18:50:48;101720.0;;;9.7;61.0
60719;BME280;46567;51.660;5.824;2023-04-25T18:55:48;101720.0;;;9.5;61.5
60719;BME280;46567;51.660;5.824;2023-04-25T19:00:48;101730.0;;;9.5;62.5
60719;BME280;46567;51.660;5.824;2023-04-25T19:05:48;101740.0;;;9.4;63.0
60719;BME280;46567;51.660;5.824;2023-04-25T19:10:49;101740.0;;;9.3;62.5
60719;BME280;46567;51.660;5.824;2023-04-25T19:15:49;101740.0;;;9.2;63.0
60719;BME280;46567;51.660;5.824;2023-04-25T19:20:48;101750.0;;;9.1;63.0
60719;BME280;46567;51.660;5.824;2023-04-25T19:25:48;101740.0;;;9.0;63.5
60719;BME280;46567;51.660;5.824;2023-04-25T19:30:48;101750.0;;;8.9;63.5
60719;BME280;46567;51.660;5.824;2023-04-25T19:35:48;101740.0;;;8.7;63.5
60719;BME280;46567;51.660;5.824;2023-04-25T19:40:48;101750.0;;;8.7;63.5
60719;BME280;46567;51.660;5.824;2023-04-25T19:45:48;101750.0;;;8.5;63.5
60719;BME280;46567;51.660;5.824;2023-04-25T19:50:48;101750.0;;;8.4;63.5
60719;BME280;46567;51.660;5.824;2023-04-25T19:55:48;101760.0;;;8.3;64.0
60719;BME280;46567;51.660;5.824;2023-04-25T20:00:48;101760.0;;;8.2;64.0
60719;BME280;46567;51.660;5.824;2023-04-25T20:05:48;101770.0;;;8.1;64.0
60719;BME280;46567;51.660;5.824;2023-04-25T20:10:48;101770.0;;;7.9;64.5
60719;BME280;46567;51.660;5.824;2023-04-25T20:15:48;101770.0;;;7.8;64.5
60719;BME280;46567;51.660;5.824;2023-04-25T20:20:48;101780.0;;;7.7;65.0
60719;BME280;46567;51.660;5.824;2023-04-25T20:25:49;101770.0;;;7.7;65.0
60719;BME280;46567;51.660;5.824;2023-04-25T20:30:48;101780.0;;;7.6;65.5
60719;BME280;46567;51.660;5.824;2023-04-25T20:35:48;101780.0;;;7.6;66.0
60719;BME280;46567;51.660;5.824;2023-04-25T20:40:48;101790.0;;;7.6;66.0
60719;BME280;46567;51.660;5.824;2023-04-25T20:45:48;101790.0;;;7.5;66.0
60719;BME280;46567;51.660;5.824;2023-04-25T20:50:48;101790.0;;;7.4;66.5
60719;BME280;46567;51.660;5.824;2023-04-25T20:55:48;101800.0;;;7.3;66.5
60719;BME280;46567;51.660;5.824;2023-04-25T21:00:48;101800.0;;;7.3;66.5
60719;BME280;46567;51.660;5.824;2023-04-25T21:05:48;101800.0;;;7.3;66.5
60719;BME280;46567;51.660;5.824;2023-04-25T21:10:48;101800.0;;;7.2;67.0
60719;BME280;46567;51.660;5.824;2023-04-25T21:15:48;101800.0;;;7.1;67.5
60719;BME280;46567;51.660;5.824;2023-04-25T21:20:48;101800.0;;;7.0;67.5
60719;BME280;46567;51.660;5.824;2023-04-25T21:25:49;101800.0;;;7.0;68.0
60719;BME280;46567;51.660;5.824;2023-04-25T21:30:48;101810.0;;;6.9;68.0
60719;BME280;46567;51.660;5.824;2023-04-25T21:35:48;101810.0;;;6.8;68.0
60719;BME280;46567;51.660;5.824;2023-04-25T21:40:48;101810.0;;;6.8;68.0
60719;BME280;46567;51.660;5.824;2023-04-25T21:45:48;101810.0;;;6.7;68.5
60719;BME280;46567;51.660;5.824;2023-04-25T21:50:48;101820.0;;;6.7;69.0
60719;BME280;46567;51.660;5.824;2023-04-25T21:55:48;101820.0;;;6.6;69.0
60719;BME280;46567;51.660;5.824;2023-04-25T22:00:48;101830.0;;;6.5;69.0
60719;BME280;46567;51.660;5.824;2023-04-25T22:05:48;101810.0;;;6.5;69.0
60719;BME280;46567;51.660;5.824;2023-04-25T22:10:48;101830.0;;;6.4;69.5
60719;BME280;46567;51.660;5.824;2023-04-25T22:15:48;101830.0;;;6.4;69.5
60719;BME280;46567;51.660;5.824;2023-04-25T22:20:48;101830.0;;;6.3;69.5
60719;BME280;46567;51.660;5.824;2023-04-25T22:25:48;101830.0;;;6.3;69.5
60719;BME280;46567;51.660;5.824;2023-04-25T22:30:48;101840.0;;;6.2;70.0
60719;BME280;46567;51.660;5.824;2023-04-25T22:35:48;101850.0;;;6.1;70.5
60719;BME280;46567;51.660;5.824;2023-04-25T22:40:48;101840.0;;;6.0;70.5
60719;BME280;46567;51.660;5.824;2023-04-25T22:45:48;101860.0;;;6.0;71.0
60719;BME280;46567;51.660;5.824;2023-04-25T22:55:53;101860.0;;;5.9;71.5
60719;BME280;46567;51.660;5.824;2023-04-25T23:00:49;101860.0;;;5.8;71.5
60719;BME280;46567;51.660;5.824;2023-04-25T23:05:48;101860.0;;;5.7;71.5
60719;BME280;46567;51.660;5.824;2023-04-25T23:10:48;101860.0;;;5.6;72.0
60719;BME280;46567;51.660;5.824;2023-04-25T23:15:48;101860.0;;;5.5;72.5
60719;BME280;46567;51.660;5.824;2023-04-25T23:20:48;101860.0;;;5.5;72.5
60719;BME280;46567;51.660;5.824;2023-04-25T23:25:48;101860.0;;;5.4;73.0
60719;BME280;46567;51.660;5.824;2023-04-25T23:30:48;101860.0;;;5.4;73.5
60719;BME280;46567;51.660;5.824;2023-04-25T23:35:48;101870.0;;;5.3;73.5
60719;BME280;46567;51.660;5.824;2023-04-25T23:40:48;101870.0;;;5.3;73.5
60719;BME280;46567;51.660;5.824;2023-04-25T23:45:48;101850.0;;;5.3;74.0
60719;BME280;46567;51.660;5.824;2023-04-25T23:50:48;101850.0;;;5.2;74.0
60719;BME280;46567;51.660;5.824;2023-04-25T23:55:48;101850.0;;;5.3;74.5
